Weather at Ramallah Heliport Airport

Public forecast

Using degrees Celsius for public forecast. Weather courtesy of forecast.io.

Closest aviation weather report (METAR) to Ramallah Heliport Airport

Closest report is Ben Gurion International Airport, 17.0 nm (31.5 km) SSW.

2022/12/04 05:20 (retrieved 35 minutes ago)

LLBG 040520Z VRB02KT CAVOK 14/09 Q1018 NOSIG

Closest aviation forecast (TAF) to Ramallah Heliport Airport

Forecast is more than 12 hours old.

Closest forecast is Beirut Rafic Hariri International Airport, 96.0 nm (177.7 km) NNE.

2022/12/03 06:00 (retrieved 24 hours ago)

TAF OLBA 030400Z 0306/0412 33010KT 8000 NSC BECMG 0320/0322 12004KT 9999 FEW030 BECMG 0406/0409 28010KT 8000 SCT026